sensor_id;sensor_type;location;lat;lon;timestamp;P1;durP1;ratioP1;P2;durP2;ratioP2
22486;SDS011;11410;53.046;10.512;2024-03-08T00:03:16;23.35;;;9.07;;
22486;SDS011;11410;53.046;10.512;2024-03-08T00:07:17;21.60;;;7.78;;
22486;SDS011;11410;53.046;10.512;2024-03-08T00:11:19;18.52;;;7.15;;
22486;SDS011;11410;53.046;10.512;2024-03-08T00:15:20;19.60;;;7.28;;
22486;SDS011;11410;53.046;10.512;2024-03-08T00:19:24;21.42;;;10.10;;
22486;SDS011;11410;53.046;10.512;2024-03-08T00:23:26;23.75;;;8.88;;
22486;SDS011;11410;53.046;10.512;2024-03-08T00:27:27;21.85;;;9.48;;
22486;SDS011;11410;53.046;10.512;2024-03-08T00:31:30;22.60;;;8.55;;
22486;SDS011;11410;53.046;10.512;2024-03-08T00:35:32;25.35;;;8.35;;
22486;SDS011;11410;53.046;10.512;2024-03-08T00:39:34;19.13;;;9.20;;
22486;SDS011;11410;53.046;10.512;2024-03-08T00:43:36;21.50;;;9.00;;
22486;SDS011;11410;53.046;10.512;2024-03-08T00:47:37;21.50;;;8.88;;
22486;SDS011;11410;53.046;10.512;2024-03-08T00:51:39;23.45;;;9.63;;
22486;SDS011;11410;53.046;10.512;2024-03-08T00:55:41;24.10;;;9.35;;
22486;SDS011;11410;53.046;10.512;2024-03-08T00:59:42;17.08;;;8.18;;
22486;SDS011;11410;53.046;10.512;2024-03-08T01:03:44;19.10;;;9.02;;
22486;SDS011;11410;53.046;10.512;2024-03-08T01:07:46;29.50;;;9.48;;
22486;SDS011;11410;53.046;10.512;2024-03-08T01:11:48;20.77;;;8.00;;
22486;SDS011;11410;53.046;10.512;2024-03-08T01:15:49;21.77;;;9.18;;
22486;SDS011;11410;53.046;10.512;2024-03-08T01:19:51;27.20;;;9.00;;
22486;SDS011;11410;53.046;10.512;2024-03-08T01:23:53;22.55;;;8.93;;
22486;SDS011;11410;53.046;10.512;2024-03-08T01:27:55;22.92;;;8.02;;
22486;SDS011;11410;53.046;10.512;2024-03-08T01:31:57;21.63;;;9.35;;
22486;SDS011;11410;53.046;10.512;2024-03-08T01:35:58;20.50;;;7.53;;
22486;SDS011;11410;53.046;10.512;2024-03-08T01:40:00;26.85;;;9.05;;
22486;SDS011;11410;53.046;10.512;2024-03-08T01:44:01;27.30;;;8.45;;
22486;SDS011;11410;53.046;10.512;2024-03-08T01:48:03;14.15;;;6.68;;
22486;SDS011;11410;53.046;10.512;2024-03-08T01:52:05;18.13;;;8.57;;
22486;SDS011;11410;53.046;10.512;2024-03-08T01:56:07;16.30;;;8.73;;
22486;SDS011;11410;53.046;10.512;2024-03-08T02:00:09;24.17;;;8.98;;
22486;SDS011;11410;53.046;10.512;2024-03-08T02:04:12;25.00;;;9.27;;
22486;SDS011;11410;53.046;10.512;2024-03-08T02:08:13;24.50;;;8.20;;
22486;SDS011;11410;53.046;10.512;2024-03-08T02:12:18;13.65;;;8.57;;
22486;SDS011;11410;53.046;10.512;2024-03-08T02:16:22;23.08;;;8.88;;
22486;SDS011;11410;53.046;10.512;2024-03-08T02:20:24;20.48;;;7.45;;
22486;SDS011;11410;53.046;10.512;2024-03-08T02:24:25;11.70;;;7.25;;
22486;SDS011;11410;53.046;10.512;2024-03-08T02:28:27;26.88;;;7.88;;
22486;SDS011;11410;53.046;10.512;2024-03-08T02:32:30;16.83;;;7.18;;
22486;SDS011;11410;53.046;10.512;2024-03-08T02:36:34;19.08;;;7.13;;
22486;SDS011;11410;53.046;10.512;2024-03-08T02:40:36;17.42;;;6.10;;
22486;SDS011;11410;53.046;10.512;2024-03-08T02:44:38;16.90;;;8.88;;
22486;SDS011;11410;53.046;10.512;2024-03-08T02:48:43;22.70;;;9.05;;
22486;SDS011;11410;53.046;10.512;2024-03-08T02:52:45;23.80;;;7.85;;
22486;SDS011;11410;53.046;10.512;2024-03-08T02:56:48;21.15;;;9.80;;
22486;SDS011;11410;53.046;10.512;2024-03-08T03:00:51;19.55;;;9.38;;
22486;SDS011;11410;53.046;10.512;2024-03-08T03:04:53;21.65;;;9.95;;
22486;SDS011;11410;53.046;10.512;2024-03-08T03:08:56;18.63;;;8.48;;
22486;SDS011;11410;53.046;10.512;2024-03-08T03:12:58;27.00;;;9.13;;
22486;SDS011;11410;53.046;10.512;2024-03-08T03:17:00;13.57;;;7.65;;
22486;SDS011;11410;53.046;10.512;2024-03-08T03:21:04;21.00;;;6.63;;
22486;SDS011;11410;53.046;10.512;2024-03-08T03:25:09;16.63;;;7.30;;
22486;SDS011;11410;53.046;10.512;2024-03-08T03:29:11;25.00;;;8.85;;
22486;SDS011;11410;53.046;10.512;2024-03-08T03:33:12;17.08;;;7.93;;
22486;SDS011;11410;53.046;10.512;2024-03-08T03:37:17;19.20;;;9.10;;
22486;SDS011;11410;53.046;10.512;2024-03-08T03:41:19;17.00;;;9.10;;
22486;SDS011;11410;53.046;10.512;2024-03-08T03:45:21;15.10;;;8.45;;
22486;SDS011;11410;53.046;10.512;2024-03-08T03:49:22;24.45;;;9.88;;
22486;SDS011;11410;53.046;10.512;2024-03-08T03:53:25;27.35;;;9.10;;
22486;SDS011;11410;53.046;10.512;2024-03-08T03:57:27;19.17;;;7.13;;
22486;SDS011;11410;53.046;10.512;2024-03-08T04:01:29;19.80;;;7.90;;
22486;SDS011;11410;53.046;10.512;2024-03-08T04:05:31;30.65;;;9.15;;
22486;SDS011;11410;53.046;10.512;2024-03-08T04:09:34;19.70;;;9.93;;
22486;SDS011;11410;53.046;10.512;2024-03-08T04:13:36;19.45;;;8.50;;
22486;SDS011;11410;53.046;10.512;2024-03-08T04:17:38;24.75;;;8.70;;
22486;SDS011;11410;53.046;10.512;2024-03-08T04:21:40;21.20;;;8.73;;
22486;SDS011;11410;53.046;10.512;2024-03-08T04:25:43;30.08;;;9.38;;
22486;SDS011;11410;53.046;10.512;2024-03-08T04:29:45;22.02;;;9.52;;
22486;SDS011;11410;53.046;10.512;2024-03-08T04:33:47;26.00;;;10.18;;
22486;SDS011;11410;53.046;10.512;2024-03-08T04:37:48;24.45;;;10.50;;
22486;SDS011;11410;53.046;10.512;2024-03-08T04:41:50;32.63;;;10.77;;
22486;SDS011;11410;53.046;10.512;2024-03-08T04:45:52;25.85;;;9.55;;
22486;SDS011;11410;53.046;10.512;2024-03-08T04:49:54;25.65;;;9.27;;
22486;SDS011;11410;53.046;10.512;2024-03-08T04:53:57;25.02;;;9.38;;
22486;SDS011;11410;53.046;10.512;2024-03-08T04:58:01;23.15;;;9.98;;
22486;SDS011;11410;53.046;10.512;2024-03-08T05:02:04;25.42;;;8.52;;
22486;SDS011;11410;53.046;10.512;2024-03-08T05:06:05;25.30;;;10.93;;
22486;SDS011;11410;53.046;10.512;2024-03-08T05:10:07;27.52;;;11.57;;
22486;SDS011;11410;53.046;10.512;2024-03-08T05:14:09;25.10;;;11.25;;
22486;SDS011;11410;53.046;10.512;2024-03-08T05:18:10;18.17;;;10.45;;
22486;SDS011;11410;53.046;10.512;2024-03-08T05:22:13;25.25;;;9.38;;
22486;SDS011;11410;53.046;10.512;2024-03-08T05:26:15;31.48;;;11.57;;
22486;SDS011;11410;53.046;10.512;2024-03-08T05:30:17;24.00;;;9.32;;
22486;SDS011;11410;53.046;10.512;2024-03-08T05:34:18;18.98;;;7.65;;
22486;SDS011;11410;53.046;10.512;2024-03-08T05:38:21;15.05;;;8.80;;
22486;SDS011;11410;53.046;10.512;2024-03-08T05:42:22;27.48;;;9.90;;
22486;SDS011;11410;53.046;10.512;2024-03-08T05:46:25;15.30;;;7.47;;
22486;SDS011;11410;53.046;10.512;2024-03-08T05:50:27;21.45;;;9.02;;
22486;SDS011;11410;53.046;10.512;2024-03-08T05:54:28;21.10;;;8.13;;
22486;SDS011;11410;53.046;10.512;2024-03-08T05:58:30;17.70;;;7.97;;
22486;SDS011;11410;53.046;10.512;2024-03-08T06:02:32;26.38;;;9.00;;
22486;SDS011;11410;53.046;10.512;2024-03-08T06:06:34;22.83;;;10.13;;
22486;SDS011;11410;53.046;10.512;2024-03-08T06:10:39;17.80;;;9.40;;
22486;SDS011;11410;53.046;10.512;2024-03-08T06:14:41;25.25;;;9.85;;
22486;SDS011;11410;53.046;10.512;2024-03-08T06:18:42;29.35;;;11.23;;
22486;SDS011;11410;53.046;10.512;2024-03-08T06:22:44;23.20;;;10.60;;
22486;SDS011;11410;53.046;10.512;2024-03-08T06:26:46;30.08;;;10.05;;
22486;SDS011;11410;53.046;10.512;2024-03-08T06:30:48;37.58;;;13.23;;
22486;SDS011;11410;53.046;10.512;2024-03-08T06:34:50;33.03;;;11.73;;
22486;SDS011;11410;53.046;10.512;2024-03-08T06:38:51;31.48;;;13.20;;
22486;SDS011;11410;53.046;10.512;2024-03-08T06:42:53;31.33;;;12.73;;
22486;SDS011;11410;53.046;10.512;2024-03-08T06:46:54;27.05;;;12.05;;
22486;SDS011;11410;53.046;10.512;2024-03-08T06:51:00;41.72;;;12.20;;
22486;SDS011;11410;53.046;10.512;2024-03-08T06:55:02;45.78;;;13.25;;
22486;SDS011;11410;53.046;10.512;2024-03-08T06:59:06;24.77;;;10.65;;
22486;SDS011;11410;53.046;10.512;2024-03-08T07:03:14;36.03;;;11.77;;
22486;SDS011;11410;53.046;10.512;2024-03-08T07:07:18;30.52;;;11.38;;
22486;SDS011;11410;53.046;10.512;2024-03-08T07:11:21;28.80;;;11.52;;
22486;SDS011;11410;53.046;10.512;2024-03-08T07:15:23;32.45;;;10.30;;
22486;SDS011;11410;53.046;10.512;2024-03-08T07:19:25;33.42;;;11.70;;
22486;SDS011;11410;53.046;10.512;2024-03-08T07:23:27;26.95;;;11.35;;
22486;SDS011;11410;53.046;10.512;2024-03-08T07:27:48;32.60;;;12.35;;
22486;SDS011;11410;53.046;10.512;2024-03-08T07:31:51;30.60;;;11.35;;
22486;SDS011;11410;53.046;10.512;2024-03-08T07:35:57;37.15;;;14.15;;
22486;SDS011;11410;53.046;10.512;2024-03-08T07:39:59;24.38;;;11.25;;
22486;SDS011;11410;53.046;10.512;2024-03-08T07:44:01;23.88;;;10.55;;
22486;SDS011;11410;53.046;10.512;2024-03-08T07:48:05;31.35;;;12.73;;
22486;SDS011;11410;53.046;10.512;2024-03-08T07:52:14;27.88;;;11.00;;
22486;SDS011;11410;53.046;10.512;2024-03-08T07:56:19;31.50;;;12.10;;
22486;SDS011;11410;53.046;10.512;2024-03-08T08:00:23;32.92;;;12.27;;
22486;SDS011;11410;53.046;10.512;2024-03-08T08:04:26;31.83;;;12.57;;
22486;SDS011;11410;53.046;10.512;2024-03-08T08:08:28;41.08;;;13.13;;
22486;SDS011;11410;53.046;10.512;2024-03-08T08:12:31;32.85;;;11.55;;
22486;SDS011;11410;53.046;10.512;2024-03-08T08:16:36;32.55;;;11.63;;
22486;SDS011;11410;53.046;10.512;2024-03-08T08:20:44;28.60;;;12.10;;
22486;SDS011;11410;53.046;10.512;2024-03-08T08:24:45;32.53;;;12.98;;
22486;SDS011;11410;53.046;10.512;2024-03-08T08:28:47;39.03;;;13.52;;
22486;SDS011;11410;53.046;10.512;2024-03-08T08:32:48;41.67;;;14.35;;
22486;SDS011;11410;53.046;10.512;2024-03-08T08:36:51;31.52;;;12.73;;
22486;SDS011;11410;53.046;10.512;2024-03-08T08:40:52;29.35;;;10.98;;
22486;SDS011;11410;53.046;10.512;2024-03-08T08:44:54;31.77;;;12.00;;
22486;SDS011;11410;53.046;10.512;2024-03-08T08:48:56;27.48;;;11.88;;
22486;SDS011;11410;53.046;10.512;2024-03-08T08:56:59;35.00;;;14.52;;
22486;SDS011;11410;53.046;10.512;2024-03-08T09:01:01;26.40;;;10.68;;
22486;SDS011;11410;53.046;10.512;2024-03-08T09:05:03;31.63;;;13.02;;
22486;SDS011;11410;53.046;10.512;2024-03-08T09:09:05;27.52;;;13.15;;
22486;SDS011;11410;53.046;10.512;2024-03-08T09:13:07;30.25;;;13.10;;
22486;SDS011;11410;53.046;10.512;2024-03-08T09:17:18;33.07;;;14.37;;
22486;SDS011;11410;53.046;10.512;2024-03-08T09:21:21;29.05;;;13.55;;
22486;SDS011;11410;53.046;10.512;2024-03-08T09:25:24;29.20;;;12.45;;
22486;SDS011;11410;53.046;10.512;2024-03-08T09:29:27;25.83;;;11.98;;
22486;SDS011;11410;53.046;10.512;2024-03-08T09:33:28;26.95;;;11.35;;
22486;SDS011;11410;53.046;10.512;2024-03-08T09:37:30;31.00;;;11.40;;
22486;SDS011;11410;53.046;10.512;2024-03-08T09:41:32;25.25;;;11.25;;
22486;SDS011;11410;53.046;10.512;2024-03-08T09:45:36;30.35;;;12.05;;
22486;SDS011;11410;53.046;10.512;2024-03-08T09:49:38;27.35;;;11.45;;
22486;SDS011;11410;53.046;10.512;2024-03-08T09:53:39;28.50;;;11.93;;
22486;SDS011;11410;53.046;10.512;2024-03-08T10:01:43;23.48;;;10.32;;
22486;SDS011;11410;53.046;10.512;2024-03-08T10:05:45;27.05;;;10.90;;
22486;SDS011;11410;53.046;10.512;2024-03-08T10:09:47;29.88;;;10.15;;
22486;SDS011;11410;53.046;10.512;2024-03-08T10:13:52;25.17;;;10.75;;
22486;SDS011;11410;53.046;10.512;2024-03-08T10:17:55;21.17;;;11.00;;
22486;SDS011;11410;53.046;10.512;2024-03-08T10:21:57;19.38;;;9.30;;
22486;SDS011;11410;53.046;10.512;2024-03-08T10:26:10;23.50;;;10.25;;
22486;SDS011;11410;53.046;10.512;2024-03-08T10:30:15;23.42;;;10.35;;
22486;SDS011;11410;53.046;10.512;2024-03-08T10:34:17;22.00;;;10.02;;
22486;SDS011;11410;53.046;10.512;2024-03-08T10:42:21;22.33;;;9.25;;
22486;SDS011;11410;53.046;10.512;2024-03-08T10:46:37;22.02;;;8.57;;
22486;SDS011;11410;53.046;10.512;2024-03-08T10:50:42;25.98;;;10.23;;
22486;SDS011;11410;53.046;10.512;2024-03-08T10:54:46;24.05;;;10.15;;
22486;SDS011;11410;53.046;10.512;2024-03-08T10:58:48;33.60;;;8.57;;
22486;SDS011;11410;53.046;10.512;2024-03-08T11:02:51;27.95;;;8.75;;
22486;SDS011;11410;53.046;10.512;2024-03-08T11:06:53;21.63;;;9.80;;
22486;SDS011;11410;53.046;10.512;2024-03-08T11:10:54;26.88;;;9.68;;
22486;SDS011;11410;53.046;10.512;2024-03-08T11:15:01;26.73;;;10.98;;
22486;SDS011;11410;53.046;10.512;2024-03-08T11:19:06;23.50;;;8.45;;
22486;SDS011;11410;53.046;10.512;2024-03-08T11:23:12;20.92;;;9.00;;
22486;SDS011;11410;53.046;10.512;2024-03-08T11:27:13;21.38;;;11.30;;
22486;SDS011;11410;53.046;10.512;2024-03-08T11:35:23;21.88;;;9.45;;
22486;SDS011;11410;53.046;10.512;2024-03-08T11:39:25;20.80;;;8.68;;
22486;SDS011;11410;53.046;10.512;2024-03-08T11:43:27;18.00;;;7.32;;
22486;SDS011;11410;53.046;10.512;2024-03-08T11:47:28;27.83;;;10.27;;
22486;SDS011;11410;53.046;10.512;2024-03-08T11:51:31;28.77;;;8.60;;
22486;SDS011;11410;53.046;10.512;2024-03-08T11:55:32;25.95;;;9.50;;
22486;SDS011;11410;53.046;10.512;2024-03-08T11:59:37;21.67;;;8.77;;
22486;SDS011;11410;53.046;10.512;2024-03-08T12:03:39;31.58;;;9.65;;
22486;SDS011;11410;53.046;10.512;2024-03-08T12:07:40;16.20;;;7.97;;
22486;SDS011;11410;53.046;10.512;2024-03-08T12:11:42;20.80;;;8.00;;
22486;SDS011;11410;53.046;10.512;2024-03-08T12:15:44;22.15;;;9.65;;
22486;SDS011;11410;53.046;10.512;2024-03-08T12:19:46;22.95;;;9.23;;
22486;SDS011;11410;53.046;10.512;2024-03-08T12:23:51;27.95;;;10.57;;
22486;SDS011;11410;53.046;10.512;2024-03-08T12:28:07;24.92;;;9.10;;
22486;SDS011;11410;53.046;10.512;2024-03-08T12:32:12;20.27;;;8.55;;
22486;SDS011;11410;53.046;10.512;2024-03-08T12:44:18;20.83;;;7.82;;
22486;SDS011;11410;53.046;10.512;2024-03-08T12:48:23;20.83;;;8.40;;
22486;SDS011;11410;53.046;10.512;2024-03-08T12:52:27;34.10;;;8.77;;
22486;SDS011;11410;53.046;10.512;2024-03-08T12:56:32;22.10;;;7.90;;
22486;SDS011;11410;53.046;10.512;2024-03-08T13:00:35;18.33;;;8.35;;
22486;SDS011;11410;53.046;10.512;2024-03-08T13:04:49;24.27;;;8.63;;
22486;SDS011;11410;53.046;10.512;2024-03-08T13:08:57;14.20;;;6.97;;
22486;SDS011;11410;53.046;10.512;2024-03-08T13:12:59;22.58;;;9.13;;
22486;SDS011;11410;53.046;10.512;2024-03-08T13:17:01;16.98;;;7.57;;
22486;SDS011;11410;53.046;10.512;2024-03-08T13:21:03;29.20;;;8.55;;
22486;SDS011;11410;53.046;10.512;2024-03-08T13:25:09;23.60;;;9.95;;
22486;SDS011;11410;53.046;10.512;2024-03-08T13:29:14;23.15;;;9.70;;
22486;SDS011;11410;53.046;10.512;2024-03-08T13:33:16;17.25;;;7.22;;
22486;SDS011;11410;53.046;10.512;2024-03-08T13:37:17;14.80;;;7.40;;
22486;SDS011;11410;53.046;10.512;2024-03-08T13:41:21;18.45;;;7.43;;
22486;SDS011;11410;53.046;10.512;2024-03-08T13:45:26;17.20;;;7.82;;
22486;SDS011;11410;53.046;10.512;2024-03-08T13:49:27;17.15;;;7.53;;
22486;SDS011;11410;53.046;10.512;2024-03-08T13:53:29;21.23;;;7.95;;
22486;SDS011;11410;53.046;10.512;2024-03-08T13:57:31;24.10;;;8.25;;
22486;SDS011;11410;53.046;10.512;2024-03-08T14:01:33;18.02;;;8.10;;
22486;SDS011;11410;53.046;10.512;2024-03-08T14:05:40;15.90;;;7.70;;
22486;SDS011;11410;53.046;10.512;2024-03-08T14:09:44;20.08;;;8.82;;
22486;SDS011;11410;53.046;10.512;2024-03-08T14:13:46;22.00;;;7.03;;
22486;SDS011;11410;53.046;10.512;2024-03-08T14:17:52;20.17;;;8.70;;
22486;SDS011;11410;53.046;10.512;2024-03-08T14:21:54;21.92;;;9.30;;
22486;SDS011;11410;53.046;10.512;2024-03-08T14:25:56;19.73;;;7.85;;
22486;SDS011;11410;53.046;10.512;2024-03-08T14:29:57;17.77;;;7.30;;
22486;SDS011;11410;53.046;10.512;2024-03-08T14:33:59;24.88;;;8.57;;
22486;SDS011;11410;53.046;10.512;2024-03-08T14:38:01;26.85;;;11.00;;
22486;SDS011;11410;53.046;10.512;2024-03-08T14:42:03;22.38;;;8.18;;
22486;SDS011;11410;53.046;10.512;2024-03-08T14:46:07;26.55;;;9.45;;
22486;SDS011;11410;53.046;10.512;2024-03-08T14:54:10;35.83;;;10.18;;
22486;SDS011;11410;53.046;10.512;2024-03-08T14:58:12;23.98;;;8.68;;
22486;SDS011;11410;53.046;10.512;2024-03-08T15:02:14;24.85;;;9.35;;
22486;SDS011;11410;53.046;10.512;2024-03-08T15:06:16;18.33;;;8.52;;
22486;SDS011;11410;53.046;10.512;2024-03-08T15:10:22;18.88;;;8.43;;
22486;SDS011;11410;53.046;10.512;2024-03-08T15:14:27;20.67;;;8.35;;
22486;SDS011;11410;53.046;10.512;2024-03-08T15:18:29;20.52;;;9.23;;
22486;SDS011;11410;53.046;10.512;2024-03-08T15:22:36;22.10;;;9.50;;
22486;SDS011;11410;53.046;10.512;2024-03-08T15:26:41;23.35;;;7.00;;
22486;SDS011;11410;53.046;10.512;2024-03-08T15:30:44;22.38;;;8.48;;
22486;SDS011;11410;53.046;10.512;2024-03-08T15:34:48;21.88;;;8.63;;
22486;SDS011;11410;53.046;10.512;2024-03-08T15:38:49;19.58;;;8.60;;
22486;SDS011;11410;53.046;10.512;2024-03-08T15:42:56;23.80;;;9.30;;
22486;SDS011;11410;53.046;10.512;2024-03-08T15:46:59;20.45;;;8.98;;
22486;SDS011;11410;53.046;10.512;2024-03-08T15:51:02;19.92;;;9.07;;
22486;SDS011;11410;53.046;10.512;2024-03-08T15:55:07;22.73;;;9.25;;
22486;SDS011;11410;53.046;10.512;2024-03-08T15:59:09;20.27;;;10.05;;
22486;SDS011;11410;53.046;10.512;2024-03-08T16:03:12;23.15;;;10.23;;
22486;SDS011;11410;53.046;10.512;2024-03-08T16:07:14;31.73;;;9.57;;
22486;SDS011;11410;53.046;10.512;2024-03-08T16:11:16;28.00;;;9.82;;
22486;SDS011;11410;53.046;10.512;2024-03-08T16:15:18;27.15;;;8.13;;
22486;SDS011;11410;53.046;10.512;2024-03-08T16:19:21;23.90;;;8.18;;
22486;SDS011;11410;53.046;10.512;2024-03-08T16:23:24;32.22;;;11.23;;
22486;SDS011;11410;53.046;10.512;2024-03-08T16:27:26;21.27;;;8.00;;
22486;SDS011;11410;53.046;10.512;2024-03-08T16:31:29;19.42;;;8.75;;
22486;SDS011;11410;53.046;10.512;2024-03-08T16:35:31;25.63;;;8.43;;
22486;SDS011;11410;53.046;10.512;2024-03-08T16:39:33;22.00;;;8.18;;
22486;SDS011;11410;53.046;10.512;2024-03-08T16:43:34;23.73;;;9.40;;
22486;SDS011;11410;53.046;10.512;2024-03-08T16:47:37;24.92;;;9.40;;
22486;SDS011;11410;53.046;10.512;2024-03-08T16:51:40;24.55;;;9.77;;
22486;SDS011;11410;53.046;10.512;2024-03-08T16:55:42;22.92;;;8.52;;
22486;SDS011;11410;53.046;10.512;2024-03-08T16:59:44;22.77;;;9.00;;
22486;SDS011;11410;53.046;10.512;2024-03-08T17:03:46;23.90;;;9.70;;
22486;SDS011;11410;53.046;10.512;2024-03-08T17:08:01;22.85;;;9.57;;
22486;SDS011;11410;53.046;10.512;2024-03-08T17:12:06;24.42;;;8.93;;
22486;SDS011;11410;53.046;10.512;2024-03-08T17:16:12;22.23;;;9.27;;
22486;SDS011;11410;53.046;10.512;2024-03-08T17:20:14;27.85;;;9.60;;
22486;SDS011;11410;53.046;10.512;2024-03-08T17:24:16;30.40;;;10.80;;
22486;SDS011;11410;53.046;10.512;2024-03-08T17:28:18;21.80;;;9.18;;
22486;SDS011;11410;53.046;10.512;2024-03-08T17:32:21;23.42;;;8.73;;
22486;SDS011;11410;53.046;10.512;2024-03-08T17:36:23;28.08;;;10.43;;
22486;SDS011;11410;53.046;10.512;2024-03-08T17:40:25;27.77;;;11.00;;
22486;SDS011;11410;53.046;10.512;2024-03-08T17:44:27;18.98;;;8.68;;
22486;SDS011;11410;53.046;10.512;2024-03-08T17:48:32;28.63;;;9.52;;
22486;SDS011;11410;53.046;10.512;2024-03-08T17:52:34;18.75;;;7.32;;
22486;SDS011;11410;53.046;10.512;2024-03-08T17:56:36;22.83;;;8.13;;
22486;SDS011;11410;53.046;10.512;2024-03-08T18:00:38;30.80;;;9.20;;
22486;SDS011;11410;53.046;10.512;2024-03-08T18:04:41;18.80;;;8.70;;
22486;SDS011;11410;53.046;10.512;2024-03-08T18:08:43;27.35;;;9.20;;
22486;SDS011;11410;53.046;10.512;2024-03-08T18:12:47;22.73;;;7.78;;
22486;SDS011;11410;53.046;10.512;2024-03-08T18:16:49;24.58;;;8.52;;
22486;SDS011;11410;53.046;10.512;2024-03-08T18:20:53;28.33;;;8.05;;
22486;SDS011;11410;53.046;10.512;2024-03-08T18:24:54;17.02;;;7.63;;
22486;SDS011;11410;53.046;10.512;2024-03-08T18:28:56;18.17;;;7.65;;
22486;SDS011;11410;53.046;10.512;2024-03-08T18:32:58;22.48;;;7.82;;
22486;SDS011;11410;53.046;10.512;2024-03-08T18:36:59;21.90;;;8.60;;
22486;SDS011;11410;53.046;10.512;2024-03-08T18:41:02;22.15;;;9.60;;
22486;SDS011;11410;53.046;10.512;2024-03-08T18:45:04;16.55;;;7.60;;
22486;SDS011;11410;53.046;10.512;2024-03-08T18:49:11;29.60;;;8.80;;
22486;SDS011;11410;53.046;10.512;2024-03-08T18:53:13;24.23;;;8.00;;
22486;SDS011;11410;53.046;10.512;2024-03-08T18:57:14;22.20;;;8.15;;
22486;SDS011;11410;53.046;10.512;2024-03-08T19:01:16;24.65;;;9.48;;
22486;SDS011;11410;53.046;10.512;2024-03-08T19:05:22;21.77;;;8.65;;
22486;SDS011;11410;53.046;10.512;2024-03-08T19:09:24;13.38;;;6.70;;
22486;SDS011;11410;53.046;10.512;2024-03-08T19:13:26;23.55;;;8.13;;
22486;SDS011;11410;53.046;10.512;2024-03-08T19:17:28;19.92;;;7.45;;
22486;SDS011;11410;53.046;10.512;2024-03-08T19:21:30;26.13;;;8.23;;
22486;SDS011;11410;53.046;10.512;2024-03-08T19:25:34;20.58;;;8.90;;
22486;SDS011;11410;53.046;10.512;2024-03-08T19:29:36;23.02;;;8.77;;
22486;SDS011;11410;53.046;10.512;2024-03-08T19:33:38;24.00;;;8.25;;
22486;SDS011;11410;53.046;10.512;2024-03-08T19:37:41;16.95;;;7.90;;
22486;SDS011;11410;53.046;10.512;2024-03-08T19:41:45;17.75;;;7.00;;
22486;SDS011;11410;53.046;10.512;2024-03-08T19:45:47;22.33;;;6.90;;
22486;SDS011;11410;53.046;10.512;2024-03-08T19:49:50;22.90;;;6.28;;
22486;SDS011;11410;53.046;10.512;2024-03-08T19:53:52;20.20;;;8.20;;
22486;SDS011;11410;53.046;10.512;2024-03-08T19:57:55;26.08;;;10.43;;
22486;SDS011;11410;53.046;10.512;2024-03-08T20:01:58;15.85;;;6.80;;
22486;SDS011;11410;53.046;10.512;2024-03-08T20:06:00;19.05;;;7.80;;
22486;SDS011;11410;53.046;10.512;2024-03-08T20:10:03;17.90;;;7.75;;
22486;SDS011;11410;53.046;10.512;2024-03-08T20:14:08;19.10;;;7.22;;
22486;SDS011;11410;53.046;10.512;2024-03-08T20:18:11;31.70;;;7.68;;
22486;SDS011;11410;53.046;10.512;2024-03-08T20:22:13;17.40;;;6.10;;
22486;SDS011;11410;53.046;10.512;2024-03-08T20:26:15;21.90;;;7.00;;
22486;SDS011;11410;53.046;10.512;2024-03-08T20:30:18;17.95;;;8.23;;
22486;SDS011;11410;53.046;10.512;2024-03-08T20:34:22;20.90;;;8.43;;
22486;SDS011;11410;53.046;10.512;2024-03-08T20:38:24;16.02;;;8.23;;
22486;SDS011;11410;53.046;10.512;2024-03-08T20:42:27;22.10;;;8.43;;
22486;SDS011;11410;53.046;10.512;2024-03-08T20:46:29;21.20;;;8.00;;
22486;SDS011;11410;53.046;10.512;2024-03-08T20:50:31;18.17;;;7.35;;
22486;SDS011;11410;53.046;10.512;2024-03-08T20:54:38;19.98;;;7.78;;
22486;SDS011;11410;53.046;10.512;2024-03-08T20:58:39;17.83;;;6.40;;
22486;SDS011;11410;53.046;10.512;2024-03-08T21:02:42;20.33;;;6.22;;
22486;SDS011;11410;53.046;10.512;2024-03-08T21:06:45;16.23;;;7.45;;
22486;SDS011;11410;53.046;10.512;2024-03-08T21:10:46;23.27;;;8.45;;
22486;SDS011;11410;53.046;10.512;2024-03-08T21:14:50;20.88;;;6.30;;
22486;SDS011;11410;53.046;10.512;2024-03-08T21:18:52;19.40;;;7.38;;
22486;SDS011;11410;53.046;10.512;2024-03-08T21:22:55;20.58;;;7.35;;
22486;SDS011;11410;53.046;10.512;2024-03-08T21:26:58;25.02;;;6.95;;
22486;SDS011;11410;53.046;10.512;2024-03-08T21:30:59;20.67;;;7.97;;
22486;SDS011;11410;53.046;10.512;2024-03-08T21:35:02;17.38;;;8.77;;
22486;SDS011;11410;53.046;10.512;2024-03-08T21:39:04;12.95;;;6.40;;
22486;SDS011;11410;53.046;10.512;2024-03-08T21:43:12;16.95;;;6.95;;
22486;SDS011;11410;53.046;10.512;2024-03-08T21:47:14;17.48;;;6.72;;
22486;SDS011;11410;53.046;10.512;2024-03-08T21:51:17;16.83;;;6.72;;
22486;SDS011;11410;53.046;10.512;2024-03-08T21:55:18;19.52;;;8.00;;
22486;SDS011;11410;53.046;10.512;2024-03-08T21:59:20;11.02;;;5.25;;
22486;SDS011;11410;53.046;10.512;2024-03-08T22:03:22;11.98;;;6.60;;
22486;SDS011;11410;53.046;10.512;2024-03-08T22:07:28;18.35;;;6.63;;
22486;SDS011;11410;53.046;10.512;2024-03-08T22:11:29;27.48;;;10.32;;
22486;SDS011;11410;53.046;10.512;2024-03-08T22:15:32;21.95;;;6.45;;
22486;SDS011;11410;53.046;10.512;2024-03-08T22:19:34;19.90;;;8.77;;
22486;SDS011;11410;53.046;10.512;2024-03-08T22:23:36;20.55;;;8.63;;
22486;SDS011;11410;53.046;10.512;2024-03-08T22:27:39;15.20;;;7.25;;
22486;SDS011;11410;53.046;10.512;2024-03-08T22:31:43;14.55;;;8.07;;
22486;SDS011;11410;53.046;10.512;2024-03-08T22:35:46;17.25;;;6.15;;
22486;SDS011;11410;53.046;10.512;2024-03-08T22:39:48;19.77;;;6.97;;
22486;SDS011;11410;53.046;10.512;2024-03-08T22:43:50;18.00;;;6.10;;
22486;SDS011;11410;53.046;10.512;2024-03-08T22:48:00;16.05;;;5.97;;
22486;SDS011;11410;53.046;10.512;2024-03-08T22:52:02;15.18;;;6.65;;
22486;SDS011;11410;53.046;10.512;2024-03-08T22:56:04;15.70;;;7.57;;
22486;SDS011;11410;53.046;10.512;2024-03-08T23:00:09;24.77;;;8.63;;
22486;SDS011;11410;53.046;10.512;2024-03-08T23:04:31;18.02;;;5.75;;
22486;SDS011;11410;53.046;10.512;2024-03-08T23:08:32;20.67;;;9.55;;
22486;SDS011;11410;53.046;10.512;2024-03-08T23:12:34;20.45;;;5.18;;
22486;SDS011;11410;53.046;10.512;2024-03-08T23:16:37;21.92;;;7.38;;
22486;SDS011;11410;53.046;10.512;2024-03-08T23:20:39;25.08;;;7.63;;
22486;SDS011;11410;53.046;10.512;2024-03-08T23:24:44;15.68;;;7.45;;
22486;SDS011;11410;53.046;10.512;2024-03-08T23:28:45;19.85;;;7.53;;
22486;SDS011;11410;53.046;10.512;2024-03-08T23:32:47;23.23;;;8.77;;
22486;SDS011;11410;53.046;10.512;2024-03-08T23:36:49;18.77;;;7.15;;
22486;SDS011;11410;53.046;10.512;2024-03-08T23:40:51;20.90;;;7.82;;
22486;SDS011;11410;53.046;10.512;2024-03-08T23:44:53;17.95;;;7.35;;
22486;SDS011;11410;53.046;10.512;2024-03-08T23:48:55;17.73;;;7.05;;
22486;SDS011;11410;53.046;10.512;2024-03-08T23:52:57;24.88;;;6.60;;
22486;SDS011;11410;53.046;10.512;2024-03-08T23:57:03;21.73;;;7.10;;
